sensor_id;sensor_type;location;lat;lon;timestamp;temperature;humidity
10459;DHT22;5277;48.722;8.736;2022-08-19T00:01:20;20.80;99.90
10459;DHT22;5277;48.722;8.736;2022-08-19T00:03:46;20.80;99.90
10459;DHT22;5277;48.722;8.736;2022-08-19T00:06:12;20.80;99.90
10459;DHT22;5277;48.722;8.736;2022-08-19T00:08:38;20.80;99.90
10459;DHT22;5277;48.722;8.736;2022-08-19T00:11:04;20.80;99.90
10459;DHT22;5277;48.722;8.736;2022-08-19T00:13:30;20.80;99.90
10459;DHT22;5277;48.722;8.736;2022-08-19T00:15:56;20.80;99.90
10459;DHT22;5277;48.722;8.736;2022-08-19T00:18:24;20.80;99.90
10459;DHT22;5277;48.722;8.736;2022-08-19T00:20:50;20.80;99.90
10459;DHT22;5277;48.722;8.736;2022-08-19T00:23:15;20.80;99.90
10459;DHT22;5277;48.722;8.736;2022-08-19T00:25:41;20.80;99.90
10459;DHT22;5277;48.722;8.736;2022-08-19T00:28:07;20.80;99.90
10459;DHT22;5277;48.722;8.736;2022-08-19T00:30:33;20.70;99.90
10459;DHT22;5277;48.722;8.736;2022-08-19T00:32:59;20.70;99.90
10459;DHT22;5277;48.722;8.736;2022-08-19T00:35:25;20.70;99.90
10459;DHT22;5277;48.722;8.736;2022-08-19T00:37:53;20.70;99.90
10459;DHT22;5277;48.722;8.736;2022-08-19T00:40:22;20.60;99.90
10459;DHT22;5277;48.722;8.736;2022-08-19T00:42:47;20.70;99.90
10459;DHT22;5277;48.722;8.736;2022-08-19T00:45:24;20.60;99.90
10459;DHT22;5277;48.722;8.736;2022-08-19T00:47:51;20.60;99.90
10459;DHT22;5277;48.722;8.736;2022-08-19T00:50:18;20.50;99.90
10459;DHT22;5277;48.722;8.736;2022-08-19T00:52:47;20.50;99.90
10459;DHT22;5277;48.722;8.736;2022-08-19T00:55:21;20.50;99.90
10459;DHT22;5277;48.722;8.736;2022-08-19T00:57:55;20.50;99.90
10459;DHT22;5277;48.722;8.736;2022-08-19T01:00:23;20.50;99.90
10459;DHT22;5277;48.722;8.736;2022-08-19T01:02:49;20.50;99.90
10459;DHT22;5277;48.722;8.736;2022-08-19T01:05:18;20.50;99.90
10459;DHT22;5277;48.722;8.736;2022-08-19T01:07:46;20.50;99.90
10459;DHT22;5277;48.722;8.736;2022-08-19T01:10:15;20.50;99.90
10459;DHT22;5277;48.722;8.736;2022-08-19T01:12:42;20.50;99.90
10459;DHT22;5277;48.722;8.736;2022-08-19T01:15:09;20.50;99.90
10459;DHT22;5277;48.722;8.736;2022-08-19T01:17:38;20.50;99.90
10459;DHT22;5277;48.722;8.736;2022-08-19T01:20:07;20.50;99.90
10459;DHT22;5277;48.722;8.736;2022-08-19T01:22:53;20.50;99.90
10459;DHT22;5277;48.722;8.736;2022-08-19T01:25:24;20.40;99.90
10459;DHT22;5277;48.722;8.736;2022-08-19T01:27:52;20.30;99.90
10459;DHT22;5277;48.722;8.736;2022-08-19T01:30:29;20.30;99.90
10459;DHT22;5277;48.722;8.736;2022-08-19T01:32:57;20.40;99.90
10459;DHT22;5277;48.722;8.736;2022-08-19T01:35:24;20.40;99.90
10459;DHT22;5277;48.722;8.736;2022-08-19T01:37:54;20.40;99.90
10459;DHT22;5277;48.722;8.736;2022-08-19T01:40:23;20.40;99.90
10459;DHT22;5277;48.722;8.736;2022-08-19T01:42:51;20.40;99.90
10459;DHT22;5277;48.722;8.736;2022-08-19T01:45:19;20.40;99.90
10459;DHT22;5277;48.722;8.736;2022-08-19T01:47:45;20.50;99.90
10459;DHT22;5277;48.722;8.736;2022-08-19T01:50:12;20.40;99.90
10459;DHT22;5277;48.722;8.736;2022-08-19T01:52:40;20.40;99.90
10459;DHT22;5277;48.722;8.736;2022-08-19T01:55:10;20.50;99.90
10459;DHT22;5277;48.722;8.736;2022-08-19T01:57:37;20.40;99.90
10459;DHT22;5277;48.722;8.736;2022-08-19T02:00:09;20.40;99.90
10459;DHT22;5277;48.722;8.736;2022-08-19T02:02:35;20.40;99.90
10459;DHT22;5277;48.722;8.736;2022-08-19T02:05:01;20.40;99.90
10459;DHT22;5277;48.722;8.736;2022-08-19T02:07:27;20.40;99.90
10459;DHT22;5277;48.722;8.736;2022-08-19T02:09:54;20.40;99.90
10459;DHT22;5277;48.722;8.736;2022-08-19T02:12:21;20.30;99.90
10459;DHT22;5277;48.722;8.736;2022-08-19T02:14:47;20.30;99.90
10459;DHT22;5277;48.722;8.736;2022-08-19T02:17:12;20.30;99.90
10459;DHT22;5277;48.722;8.736;2022-08-19T02:19:38;20.30;99.90
10459;DHT22;5277;48.722;8.736;2022-08-19T02:22:04;20.30;99.90
10459;DHT22;5277;48.722;8.736;2022-08-19T02:24:30;20.30;99.90
10459;DHT22;5277;48.722;8.736;2022-08-19T02:26:56;20.20;99.90
10459;DHT22;5277;48.722;8.736;2022-08-19T02:29:22;20.30;99.90
10459;DHT22;5277;48.722;8.736;2022-08-19T02:31:48;20.20;99.90
10459;DHT22;5277;48.722;8.736;2022-08-19T02:34:14;20.20;99.90
10459;DHT22;5277;48.722;8.736;2022-08-19T02:36:39;20.20;99.90
10459;DHT22;5277;48.722;8.736;2022-08-19T02:39:05;20.20;99.90
10459;DHT22;5277;48.722;8.736;2022-08-19T02:41:32;20.20;99.90
10459;DHT22;5277;48.722;8.736;2022-08-19T02:44:00;20.20;99.90
10459;DHT22;5277;48.722;8.736;2022-08-19T02:46:31;20.20;99.90
10459;DHT22;5277;48.722;8.736;2022-08-19T02:49:05;20.20;99.90
10459;DHT22;5277;48.722;8.736;2022-08-19T02:51:36;20.20;99.90
10459;DHT22;5277;48.722;8.736;2022-08-19T02:54:04;20.10;99.90
10459;DHT22;5277;48.722;8.736;2022-08-19T02:56:30;20.10;99.90
10459;DHT22;5277;48.722;8.736;2022-08-19T02:58:57;20.20;99.90
10459;DHT22;5277;48.722;8.736;2022-08-19T03:01:27;20.10;99.90
10459;DHT22;5277;48.722;8.736;2022-08-19T03:03:53;20.10;99.90
10459;DHT22;5277;48.722;8.736;2022-08-19T03:06:19;20.10;99.90
10459;DHT22;5277;48.722;8.736;2022-08-19T03:08:46;20.00;99.90
10459;DHT22;5277;48.722;8.736;2022-08-19T03:11:18;20.00;99.90
10459;DHT22;5277;48.722;8.736;2022-08-19T03:13:44;20.00;99.90
10459;DHT22;5277;48.722;8.736;2022-08-19T03:16:11;20.00;99.90
10459;DHT22;5277;48.722;8.736;2022-08-19T03:18:37;19.90;99.90
10459;DHT22;5277;48.722;8.736;2022-08-19T03:21:03;19.90;99.90
10459;DHT22;5277;48.722;8.736;2022-08-19T03:23:28;19.90;99.90
10459;DHT22;5277;48.722;8.736;2022-08-19T03:25:54;19.90;99.90
10459;DHT22;5277;48.722;8.736;2022-08-19T03:28:20;19.90;99.90
10459;DHT22;5277;48.722;8.736;2022-08-19T03:31:02;19.90;99.90
10459;DHT22;5277;48.722;8.736;2022-08-19T03:33:29;19.90;99.90
10459;DHT22;5277;48.722;8.736;2022-08-19T03:38:31;19.90;99.90
10459;DHT22;5277;48.722;8.736;2022-08-19T03:40:58;19.90;99.90
10459;DHT22;5277;48.722;8.736;2022-08-19T03:43:27;19.90;99.90
10459;DHT22;5277;48.722;8.736;2022-08-19T03:46:11;19.80;99.90
10459;DHT22;5277;48.722;8.736;2022-08-19T03:48:40;19.80;99.90
10459;DHT22;5277;48.722;8.736;2022-08-19T03:51:07;19.80;99.90
10459;DHT22;5277;48.722;8.736;2022-08-19T03:53:34;19.80;99.90
10459;DHT22;5277;48.722;8.736;2022-08-19T03:56:00;19.80;99.90
10459;DHT22;5277;48.722;8.736;2022-08-19T03:58:29;19.70;99.90
10459;DHT22;5277;48.722;8.736;2022-08-19T04:00:58;19.70;99.90
10459;DHT22;5277;48.722;8.736;2022-08-19T04:03:24;19.70;99.90
10459;DHT22;5277;48.722;8.736;2022-08-19T04:05:53;19.70;99.90
10459;DHT22;5277;48.722;8.736;2022-08-19T04:08:19;19.70;99.90
10459;DHT22;5277;48.722;8.736;2022-08-19T04:10:48;19.70;99.90
10459;DHT22;5277;48.722;8.736;2022-08-19T04:13:16;19.70;99.90
10459;DHT22;5277;48.722;8.736;2022-08-19T04:15:44;19.70;99.90
10459;DHT22;5277;48.722;8.736;2022-08-19T04:18:12;19.70;99.90
10459;DHT22;5277;48.722;8.736;2022-08-19T04:20:44;19.70;99.90
10459;DHT22;5277;48.722;8.736;2022-08-19T04:23:11;19.70;99.90
10459;DHT22;5277;48.722;8.736;2022-08-19T04:25:40;19.70;99.90
10459;DHT22;5277;48.722;8.736;2022-08-19T04:28:07;19.70;99.90
10459;DHT22;5277;48.722;8.736;2022-08-19T04:30:42;19.60;99.90
10459;DHT22;5277;48.722;8.736;2022-08-19T04:33:09;19.60;99.90
10459;DHT22;5277;48.722;8.736;2022-08-19T04:35:37;19.60;99.90
10459;DHT22;5277;48.722;8.736;2022-08-19T04:38:03;19.50;99.90
10459;DHT22;5277;48.722;8.736;2022-08-19T04:40:29;19.50;99.90
10459;DHT22;5277;48.722;8.736;2022-08-19T04:43:14;19.50;99.90
10459;DHT22;5277;48.722;8.736;2022-08-19T04:45:44;19.60;99.90
10459;DHT22;5277;48.722;8.736;2022-08-19T04:48:11;19.60;99.90
10459;DHT22;5277;48.722;8.736;2022-08-19T04:50:41;19.60;99.90
10459;DHT22;5277;48.722;8.736;2022-08-19T04:53:07;19.60;99.90
10459;DHT22;5277;48.722;8.736;2022-08-19T04:55:33;19.60;99.90
10459;DHT22;5277;48.722;8.736;2022-08-19T04:57:58;19.70;99.90
10459;DHT22;5277;48.722;8.736;2022-08-19T05:00:25;19.60;99.90
10459;DHT22;5277;48.722;8.736;2022-08-19T05:02:51;19.60;99.90
10459;DHT22;5277;48.722;8.736;2022-08-19T05:05:17;19.70;99.90
10459;DHT22;5277;48.722;8.736;2022-08-19T05:07:42;19.70;99.90
10459;DHT22;5277;48.722;8.736;2022-08-19T05:10:09;19.70;99.90
10459;DHT22;5277;48.722;8.736;2022-08-19T05:12:37;19.70;99.90
10459;DHT22;5277;48.722;8.736;2022-08-19T05:15:06;19.70;99.90
10459;DHT22;5277;48.722;8.736;2022-08-19T05:17:35;19.70;99.90
10459;DHT22;5277;48.722;8.736;2022-08-19T05:20:02;19.70;99.90
10459;DHT22;5277;48.722;8.736;2022-08-19T05:22:47;19.70;99.90
10459;DHT22;5277;48.722;8.736;2022-08-19T05:25:17;19.70;99.90
10459;DHT22;5277;48.722;8.736;2022-08-19T05:27:44;19.70;99.90
10459;DHT22;5277;48.722;8.736;2022-08-19T05:30:11;19.70;99.90
10459;DHT22;5277;48.722;8.736;2022-08-19T05:32:38;19.80;99.90
10459;DHT22;5277;48.722;8.736;2022-08-19T05:35:05;19.80;99.90
10459;DHT22;5277;48.722;8.736;2022-08-19T05:37:31;19.70;99.90
10459;DHT22;5277;48.722;8.736;2022-08-19T05:39:56;19.80;99.90
10459;DHT22;5277;48.722;8.736;2022-08-19T05:42:22;19.80;99.90
10459;DHT22;5277;48.722;8.736;2022-08-19T05:44:49;19.90;99.90
10459;DHT22;5277;48.722;8.736;2022-08-19T05:47:15;19.90;99.90
10459;DHT22;5277;48.722;8.736;2022-08-19T05:49:41;19.90;99.90
10459;DHT22;5277;48.722;8.736;2022-08-19T05:52:10;20.00;99.90
10459;DHT22;5277;48.722;8.736;2022-08-19T05:54:39;20.00;99.90
10459;DHT22;5277;48.722;8.736;2022-08-19T05:57:09;20.00;99.90
10459;DHT22;5277;48.722;8.736;2022-08-19T05:59:35;20.00;99.90
10459;DHT22;5277;48.722;8.736;2022-08-19T06:02:02;20.00;99.90
10459;DHT22;5277;48.722;8.736;2022-08-19T06:04:28;20.00;99.90
10459;DHT22;5277;48.722;8.736;2022-08-19T06:06:54;20.00;99.90
10459;DHT22;5277;48.722;8.736;2022-08-19T06:09:22;20.10;99.90
10459;DHT22;5277;48.722;8.736;2022-08-19T06:11:51;20.10;99.90
10459;DHT22;5277;48.722;8.736;2022-08-19T06:14:29;20.10;99.90
10459;DHT22;5277;48.722;8.736;2022-08-19T06:16:56;20.10;99.90
10459;DHT22;5277;48.722;8.736;2022-08-19T06:19:23;20.20;99.90
10459;DHT22;5277;48.722;8.736;2022-08-19T06:21:51;20.20;99.90
10459;DHT22;5277;48.722;8.736;2022-08-19T06:24:20;20.20;99.90
10459;DHT22;5277;48.722;8.736;2022-08-19T06:26:48;20.20;99.90
10459;DHT22;5277;48.722;8.736;2022-08-19T06:29:16;20.30;99.90
10459;DHT22;5277;48.722;8.736;2022-08-19T06:31:45;20.40;99.90
10459;DHT22;5277;48.722;8.736;2022-08-19T06:34:11;20.40;99.90
10459;DHT22;5277;48.722;8.736;2022-08-19T06:36:40;20.40;99.90
10459;DHT22;5277;48.722;8.736;2022-08-19T06:39:21;20.50;99.90
10459;DHT22;5277;48.722;8.736;2022-08-19T06:41:54;20.50;99.90
10459;DHT22;5277;48.722;8.736;2022-08-19T06:44:22;20.50;99.90
10459;DHT22;5277;48.722;8.736;2022-08-19T06:46:48;20.60;99.90
10459;DHT22;5277;48.722;8.736;2022-08-19T06:49:15;20.60;99.90
10459;DHT22;5277;48.722;8.736;2022-08-19T06:51:43;20.60;99.90
10459;DHT22;5277;48.722;8.736;2022-08-19T06:54:10;20.60;99.90
10459;DHT22;5277;48.722;8.736;2022-08-19T06:56:36;20.60;99.90
10459;DHT22;5277;48.722;8.736;2022-08-19T06:59:08;20.70;99.90
10459;DHT22;5277;48.722;8.736;2022-08-19T07:01:46;20.80;99.90
10459;DHT22;5277;48.722;8.736;2022-08-19T07:04:14;20.90;99.90
10459;DHT22;5277;48.722;8.736;2022-08-19T07:06:41;20.90;99.90
10459;DHT22;5277;48.722;8.736;2022-08-19T07:09:09;20.90;99.90
10459;DHT22;5277;48.722;8.736;2022-08-19T07:11:35;21.00;99.90
10459;DHT22;5277;48.722;8.736;2022-08-19T07:14:01;21.00;99.90
10459;DHT22;5277;48.722;8.736;2022-08-19T07:16:27;21.00;99.90
10459;DHT22;5277;48.722;8.736;2022-08-19T07:18:58;21.10;99.90
10459;DHT22;5277;48.722;8.736;2022-08-19T07:21:26;21.10;99.90
10459;DHT22;5277;48.722;8.736;2022-08-19T07:23:56;21.10;99.90
10459;DHT22;5277;48.722;8.736;2022-08-19T07:26:28;21.20;99.90
10459;DHT22;5277;48.722;8.736;2022-08-19T07:28:57;21.30;99.90
10459;DHT22;5277;48.722;8.736;2022-08-19T07:31:26;21.30;99.90
10459;DHT22;5277;48.722;8.736;2022-08-19T07:33:54;21.40;99.90
10459;DHT22;5277;48.722;8.736;2022-08-19T07:36:29;21.40;99.90
10459;DHT22;5277;48.722;8.736;2022-08-19T07:38:59;21.40;99.90
10459;DHT22;5277;48.722;8.736;2022-08-19T07:41:27;21.40;99.90
10459;DHT22;5277;48.722;8.736;2022-08-19T07:43:54;21.50;99.90
10459;DHT22;5277;48.722;8.736;2022-08-19T07:46:21;21.50;99.90
10459;DHT22;5277;48.722;8.736;2022-08-19T07:48:48;21.50;99.90
10459;DHT22;5277;48.722;8.736;2022-08-19T07:51:18;21.60;99.90
10459;DHT22;5277;48.722;8.736;2022-08-19T07:53:45;21.70;99.90
10459;DHT22;5277;48.722;8.736;2022-08-19T07:56:13;21.70;99.90
10459;DHT22;5277;48.722;8.736;2022-08-19T07:58:42;21.80;99.90
10459;DHT22;5277;48.722;8.736;2022-08-19T08:01:10;21.80;99.90
10459;DHT22;5277;48.722;8.736;2022-08-19T08:03:37;21.90;99.90
10459;DHT22;5277;48.722;8.736;2022-08-19T08:06:22;22.00;99.90
10459;DHT22;5277;48.722;8.736;2022-08-19T08:09:08;22.20;99.90
10459;DHT22;5277;48.722;8.736;2022-08-19T08:14:17;22.60;98.80
10459;DHT22;5277;48.722;8.736;2022-08-19T08:16:44;22.80;98.70
10459;DHT22;5277;48.722;8.736;2022-08-19T08:19:11;23.00;98.40
10459;DHT22;5277;48.722;8.736;2022-08-19T08:21:40;23.10;98.10
10459;DHT22;5277;48.722;8.736;2022-08-19T08:24:09;23.40;97.80
10459;DHT22;5277;48.722;8.736;2022-08-19T08:26:35;23.60;97.40
10459;DHT22;5277;48.722;8.736;2022-08-19T08:29:01;23.70;96.90
10459;DHT22;5277;48.722;8.736;2022-08-19T08:31:27;23.70;96.30
10459;DHT22;5277;48.722;8.736;2022-08-19T08:33:54;23.70;96.40
10459;DHT22;5277;48.722;8.736;2022-08-19T08:36:20;23.70;96.40
10459;DHT22;5277;48.722;8.736;2022-08-19T08:38:49;23.70;96.30
10459;DHT22;5277;48.722;8.736;2022-08-19T08:43:54;23.50;96.70
10459;DHT22;5277;48.722;8.736;2022-08-19T08:46:49;23.40;96.40
10459;DHT22;5277;48.722;8.736;2022-08-19T08:49:51;23.40;96.40
10459;DHT22;5277;48.722;8.736;2022-08-19T08:52:24;23.20;96.60
10459;DHT22;5277;48.722;8.736;2022-08-19T08:54:54;23.10;96.50
10459;DHT22;5277;48.722;8.736;2022-08-19T09:00:14;23.10;96.80
10459;DHT22;5277;48.722;8.736;2022-08-19T09:02:41;23.10;96.90
10459;DHT22;5277;48.722;8.736;2022-08-19T09:05:07;23.10;96.90
10459;DHT22;5277;48.722;8.736;2022-08-19T09:10:26;23.20;97.00
10459;DHT22;5277;48.722;8.736;2022-08-19T09:15:51;23.20;96.80
10459;DHT22;5277;48.722;8.736;2022-08-19T09:18:24;23.20;96.70
10459;DHT22;5277;48.722;8.736;2022-08-19T09:21:31;23.20;97.20
10459;DHT22;5277;48.722;8.736;2022-08-19T09:24:26;23.20;96.50
10459;DHT22;5277;48.722;8.736;2022-08-19T09:26:52;23.10;96.80
10459;DHT22;5277;48.722;8.736;2022-08-19T09:29:18;23.10;96.60
10459;DHT22;5277;48.722;8.736;2022-08-19T09:31:46;23.10;96.70
10459;DHT22;5277;48.722;8.736;2022-08-19T09:34:11;23.10;96.50
10459;DHT22;5277;48.722;8.736;2022-08-19T09:36:37;23.10;96.20
10459;DHT22;5277;48.722;8.736;2022-08-19T09:39:05;23.10;96.20
10459;DHT22;5277;48.722;8.736;2022-08-19T09:41:31;23.10;96.20
10459;DHT22;5277;48.722;8.736;2022-08-19T09:43:58;23.00;96.20
10459;DHT22;5277;48.722;8.736;2022-08-19T09:46:27;23.00;96.20
10459;DHT22;5277;48.722;8.736;2022-08-19T09:48:53;23.00;96.20
10459;DHT22;5277;48.722;8.736;2022-08-19T09:51:23;23.00;96.40
10459;DHT22;5277;48.722;8.736;2022-08-19T09:53:50;23.10;96.20
10459;DHT22;5277;48.722;8.736;2022-08-19T09:56:18;23.10;96.20
10459;DHT22;5277;48.722;8.736;2022-08-19T09:58:44;23.10;96.00
10459;DHT22;5277;48.722;8.736;2022-08-19T10:01:22;23.10;96.20
10459;DHT22;5277;48.722;8.736;2022-08-19T10:03:51;23.20;95.90
10459;DHT22;5277;48.722;8.736;2022-08-19T10:06:19;23.10;95.90
10459;DHT22;5277;48.722;8.736;2022-08-19T10:08:46;23.20;95.60
10459;DHT22;5277;48.722;8.736;2022-08-19T10:11:12;23.20;95.50
10459;DHT22;5277;48.722;8.736;2022-08-19T10:13:41;23.30;95.80
10459;DHT22;5277;48.722;8.736;2022-08-19T10:16:09;23.30;95.80
10459;DHT22;5277;48.722;8.736;2022-08-19T10:18:36;23.40;95.70
10459;DHT22;5277;48.722;8.736;2022-08-19T10:21:14;23.30;95.90
10459;DHT22;5277;48.722;8.736;2022-08-19T10:23:43;23.40;95.60
10459;DHT22;5277;48.722;8.736;2022-08-19T10:26:29;23.50;95.30
10459;DHT22;5277;48.722;8.736;2022-08-19T10:28:56;23.60;95.20
10459;DHT22;5277;48.722;8.736;2022-08-19T10:31:27;23.80;95.00
10459;DHT22;5277;48.722;8.736;2022-08-19T10:33:54;23.90;94.90
10459;DHT22;5277;48.722;8.736;2022-08-19T10:36:33;24.10;94.40
10459;DHT22;5277;48.722;8.736;2022-08-19T10:39:03;24.10;93.60
10459;DHT22;5277;48.722;8.736;2022-08-19T10:41:32;24.20;94.00
10459;DHT22;5277;48.722;8.736;2022-08-19T10:44:02;24.20;92.80
10459;DHT22;5277;48.722;8.736;2022-08-19T10:46:29;24.20;93.40
10459;DHT22;5277;48.722;8.736;2022-08-19T10:49:01;24.30;93.00
10459;DHT22;5277;48.722;8.736;2022-08-19T10:51:28;24.30;93.40
10459;DHT22;5277;48.722;8.736;2022-08-19T10:54:12;24.30;92.50
10459;DHT22;5277;48.722;8.736;2022-08-19T10:56:38;24.20;92.70
10459;DHT22;5277;48.722;8.736;2022-08-19T10:59:24;24.20;93.00
10459;DHT22;5277;48.722;8.736;2022-08-19T11:01:51;24.10;92.70
10459;DHT22;5277;48.722;8.736;2022-08-19T11:04:33;24.10;93.00
10459;DHT22;5277;48.722;8.736;2022-08-19T11:06:58;24.10;93.20
10459;DHT22;5277;48.722;8.736;2022-08-19T11:09:25;24.10;93.50
10459;DHT22;5277;48.722;8.736;2022-08-19T11:11:53;24.20;93.80
10459;DHT22;5277;48.722;8.736;2022-08-19T11:14:20;24.40;93.50
10459;DHT22;5277;48.722;8.736;2022-08-19T11:16:48;24.90;92.20
10459;DHT22;5277;48.722;8.736;2022-08-19T11:19:15;25.60;91.00
10459;DHT22;5277;48.722;8.736;2022-08-19T11:21:45;25.80;90.00
10459;DHT22;5277;48.722;8.736;2022-08-19T11:24:15;25.90;89.00
10459;DHT22;5277;48.722;8.736;2022-08-19T11:26:43;25.90;88.30
10459;DHT22;5277;48.722;8.736;2022-08-19T11:29:10;25.80;89.00
10459;DHT22;5277;48.722;8.736;2022-08-19T11:31:37;25.80;90.20
10459;DHT22;5277;48.722;8.736;2022-08-19T11:34:06;25.70;89.90
10459;DHT22;5277;48.722;8.736;2022-08-19T11:36:33;25.60;88.70
10459;DHT22;5277;48.722;8.736;2022-08-19T11:38:59;25.70;89.30
10459;DHT22;5277;48.722;8.736;2022-08-19T11:41:25;26.20;88.10
10459;DHT22;5277;48.722;8.736;2022-08-19T11:43:52;27.00;86.50
10459;DHT22;5277;48.722;8.736;2022-08-19T11:46:25;27.40;81.80
10459;DHT22;5277;48.722;8.736;2022-08-19T11:49:01;27.70;82.20
10459;DHT22;5277;48.722;8.736;2022-08-19T11:51:34;27.60;80.40
10459;DHT22;5277;48.722;8.736;2022-08-19T11:54:05;27.20;78.40
10459;DHT22;5277;48.722;8.736;2022-08-19T11:56:31;27.00;78.50
10459;DHT22;5277;48.722;8.736;2022-08-19T11:58:57;26.90;78.80
10459;DHT22;5277;48.722;8.736;2022-08-19T12:01:25;26.90;80.40
10459;DHT22;5277;48.722;8.736;2022-08-19T12:03:53;27.00;79.60
10459;DHT22;5277;48.722;8.736;2022-08-19T12:06:29;27.00;79.00
10459;DHT22;5277;48.722;8.736;2022-08-19T12:08:58;27.30;78.90
10459;DHT22;5277;48.722;8.736;2022-08-19T12:11:24;27.40;78.50
10459;DHT22;5277;48.722;8.736;2022-08-19T12:13:51;27.30;79.10
10459;DHT22;5277;48.722;8.736;2022-08-19T12:16:22;27.20;77.10
10459;DHT22;5277;48.722;8.736;2022-08-19T12:25:23;28.00;74.00
10459;DHT22;5277;48.722;8.736;2022-08-19T12:27:49;27.90;74.10
10459;DHT22;5277;48.722;8.736;2022-08-19T12:30:15;27.90;74.10
10459;DHT22;5277;48.722;8.736;2022-08-19T12:32:41;28.20;72.20
10459;DHT22;5277;48.722;8.736;2022-08-19T12:35:08;28.70;74.50
10459;DHT22;5277;48.722;8.736;2022-08-19T12:37:35;29.20;70.60
10459;DHT22;5277;48.722;8.736;2022-08-19T12:40:02;29.70;67.70
10459;DHT22;5277;48.722;8.736;2022-08-19T12:42:28;30.10;65.60
10459;DHT22;5277;48.722;8.736;2022-08-19T12:44:55;30.20;64.50
10459;DHT22;5277;48.722;8.736;2022-08-19T12:47:21;30.10;64.50
10459;DHT22;5277;48.722;8.736;2022-08-19T12:49:48;29.90;64.90
10459;DHT22;5277;48.722;8.736;2022-08-19T12:52:14;29.30;65.00
10459;DHT22;5277;48.722;8.736;2022-08-19T12:54:44;28.90;67.30
10459;DHT22;5277;48.722;8.736;2022-08-19T12:57:28;28.50;69.00
10459;DHT22;5277;48.722;8.736;2022-08-19T13:00:20;28.30;69.50
10459;DHT22;5277;48.722;8.736;2022-08-19T13:06:46;27.80;70.80
10459;DHT22;5277;48.722;8.736;2022-08-19T13:12:42;27.50;73.00
10459;DHT22;5277;48.722;8.736;2022-08-19T13:18:11;27.00;73.60
10459;DHT22;5277;48.722;8.736;2022-08-19T13:24:14;26.80;75.10
10459;DHT22;5277;48.722;8.736;2022-08-19T13:30:31;26.60;76.80
10459;DHT22;5277;48.722;8.736;2022-08-19T13:33:18;26.60;76.90
10459;DHT22;5277;48.722;8.736;2022-08-19T13:35:48;26.50;76.50
10459;DHT22;5277;48.722;8.736;2022-08-19T13:38:19;26.50;76.60
10459;DHT22;5277;48.722;8.736;2022-08-19T13:40:46;26.40;77.60
10459;DHT22;5277;48.722;8.736;2022-08-19T13:43:13;26.30;77.10
10459;DHT22;5277;48.722;8.736;2022-08-19T13:45:39;26.40;77.20
10459;DHT22;5277;48.722;8.736;2022-08-19T13:48:06;26.30;77.40
10459;DHT22;5277;48.722;8.736;2022-08-19T13:50:44;26.40;76.20
10459;DHT22;5277;48.722;8.736;2022-08-19T13:53:11;26.40;76.90
10459;DHT22;5277;48.722;8.736;2022-08-19T13:55:41;26.40;76.80
10459;DHT22;5277;48.722;8.736;2022-08-19T13:58:08;26.40;77.10
10459;DHT22;5277;48.722;8.736;2022-08-19T14:00:37;26.50;76.50
10459;DHT22;5277;48.722;8.736;2022-08-19T14:03:04;26.50;76.40
10459;DHT22;5277;48.722;8.736;2022-08-19T14:05:30;26.60;76.60
10459;DHT22;5277;48.722;8.736;2022-08-19T14:07:57;26.70;76.20
10459;DHT22;5277;48.722;8.736;2022-08-19T14:10:24;26.80;76.10
10459;DHT22;5277;48.722;8.736;2022-08-19T14:12:56;26.90;75.60
10459;DHT22;5277;48.722;8.736;2022-08-19T14:15:24;26.90;75.10
10459;DHT22;5277;48.722;8.736;2022-08-19T14:17:50;27.00;75.70
10459;DHT22;5277;48.722;8.736;2022-08-19T14:20:16;27.10;76.00
10459;DHT22;5277;48.722;8.736;2022-08-19T14:22:43;27.20;75.00
10459;DHT22;5277;48.722;8.736;2022-08-19T14:25:12;27.30;74.60
10459;DHT22;5277;48.722;8.736;2022-08-19T14:27:39;27.40;74.40
10459;DHT22;5277;48.722;8.736;2022-08-19T14:30:08;27.40;73.90
10459;DHT22;5277;48.722;8.736;2022-08-19T14:32:34;27.50;71.50
10459;DHT22;5277;48.722;8.736;2022-08-19T14:35:01;27.40;73.40
10459;DHT22;5277;48.722;8.736;2022-08-19T14:37:26;27.40;74.00
10459;DHT22;5277;48.722;8.736;2022-08-19T14:39:52;27.40;74.80
10459;DHT22;5277;48.722;8.736;2022-08-19T14:42:19;27.40;75.90
10459;DHT22;5277;48.722;8.736;2022-08-19T14:44:45;27.30;75.10
10459;DHT22;5277;48.722;8.736;2022-08-19T14:47:11;27.10;75.60
10459;DHT22;5277;48.722;8.736;2022-08-19T14:49:36;27.10;75.70
10459;DHT22;5277;48.722;8.736;2022-08-19T14:52:03;26.90;77.40
10459;DHT22;5277;48.722;8.736;2022-08-19T14:54:29;26.80;75.90
10459;DHT22;5277;48.722;8.736;2022-08-19T14:56:55;26.70;77.70
10459;DHT22;5277;48.722;8.736;2022-08-19T14:59:21;26.70;80.20
10459;DHT22;5277;48.722;8.736;2022-08-19T15:01:47;26.60;80.10
10459;DHT22;5277;48.722;8.736;2022-08-19T15:04:13;26.50;81.60
10459;DHT22;5277;48.722;8.736;2022-08-19T15:06:39;26.40;81.60
10459;DHT22;5277;48.722;8.736;2022-08-19T15:09:05;26.30;81.90
10459;DHT22;5277;48.722;8.736;2022-08-19T15:11:31;26.20;81.90
10459;DHT22;5277;48.722;8.736;2022-08-19T15:13:58;26.10;83.40
10459;DHT22;5277;48.722;8.736;2022-08-19T15:16:25;25.90;83.50
10459;DHT22;5277;48.722;8.736;2022-08-19T15:18:54;25.90;86.50
10459;DHT22;5277;48.722;8.736;2022-08-19T15:21:20;25.80;83.20
10459;DHT22;5277;48.722;8.736;2022-08-19T15:23:47;25.80;83.00
10459;DHT22;5277;48.722;8.736;2022-08-19T15:26:15;25.80;86.30
10459;DHT22;5277;48.722;8.736;2022-08-19T15:28:44;25.70;87.50
10459;DHT22;5277;48.722;8.736;2022-08-19T15:31:10;25.70;84.20
10459;DHT22;5277;48.722;8.736;2022-08-19T15:33:38;25.70;87.70
10459;DHT22;5277;48.722;8.736;2022-08-19T15:36:08;25.60;85.90
10459;DHT22;5277;48.722;8.736;2022-08-19T15:38:34;25.60;84.50
10459;DHT22;5277;48.722;8.736;2022-08-19T15:41:01;25.60;88.30
10459;DHT22;5277;48.722;8.736;2022-08-19T15:43:47;25.60;86.30
10459;DHT22;5277;48.722;8.736;2022-08-19T15:46:23;25.50;88.30
10459;DHT22;5277;48.722;8.736;2022-08-19T15:48:50;25.40;88.00
10459;DHT22;5277;48.722;8.736;2022-08-19T15:51:17;25.30;89.90
10459;DHT22;5277;48.722;8.736;2022-08-19T15:53:55;25.30;90.10
10459;DHT22;5277;48.722;8.736;2022-08-19T15:56:21;25.30;90.10
10459;DHT22;5277;48.722;8.736;2022-08-19T15:58:46;25.20;90.10
10459;DHT22;5277;48.722;8.736;2022-08-19T16:01:30;25.30;86.60
10459;DHT22;5277;48.722;8.736;2022-08-19T16:03:59;25.30;86.50
10459;DHT22;5277;48.722;8.736;2022-08-19T16:06:46;25.30;87.40
10459;DHT22;5277;48.722;8.736;2022-08-19T16:09:13;25.20;84.80
10459;DHT22;5277;48.722;8.736;2022-08-19T16:11:40;25.20;83.40
10459;DHT22;5277;48.722;8.736;2022-08-19T16:14:07;25.10;85.60
10459;DHT22;5277;48.722;8.736;2022-08-19T16:16:34;25.00;86.70
10459;DHT22;5277;48.722;8.736;2022-08-19T16:19:03;25.00;87.10
10459;DHT22;5277;48.722;8.736;2022-08-19T16:21:30;25.00;86.80
10459;DHT22;5277;48.722;8.736;2022-08-19T16:24:05;25.00;87.40
10459;DHT22;5277;48.722;8.736;2022-08-19T16:26:32;24.80;85.10
10459;DHT22;5277;48.722;8.736;2022-08-19T16:29:00;24.80;88.20
10459;DHT22;5277;48.722;8.736;2022-08-19T16:31:26;24.80;87.50
10459;DHT22;5277;48.722;8.736;2022-08-19T16:33:53;24.80;86.30
10459;DHT22;5277;48.722;8.736;2022-08-19T16:36:19;24.70;86.80